Airfield :
LOGIN :

Register | Disclaimer

   EN    FR    IT 

 










Legend :    VFR   Marginal VFR   IFR   Intensive IFR   Very Intensive IFR
Visi :
Ceiling :
>= 8 km
>= 3000ft
5 to 8 km
1000 to 3000 ft
1500m to 5 km
500 to 1000 ft
800 to 1500m
200 to 500 ft
< 800m
< 200 ft
Symbols :   Thunderstorms  Fog  Heavy snow  Heavy precipitations  Wind > 20 kt
SIGMETs :     Misc.  Thunderstorms  Icing  Turbulence  Mountain Waves  Volcanic Ashes







- Airport Elevation : 36 ft
- IATA code : LTQ
- Download approach charts


LFAT - Le Touquet

CURRENT METAR :
  • 181400Z AUTO 26013KT 230V290 9999 FEW018 20/16 Q1014 NOSIG

EXPIRED METARs :
  • 181330Z AUTO 25014KT 220V280 9999 FEW020 SCT042 21/15 Q1014 NOSIG
  • 181300Z AUTO 23014KT 200V260 9999 FEW023 OVC041 20/15 Q1014 TEMPO 23015G25KT
  • 181230Z AUTO 25012KT 210V270 9999 BKN029 OVC037 20/15 Q1014 TEMPO 23015G25KT
  • 181200Z AUTO 24015KT 9999 BKN038 21/15 Q1014 TEMPO 23015G25KT
  • 181130Z AUTO 24013G23KT 210V270 9999 SCT036 21/15 Q1014 NOSIG

TAF TAF LFAT
Valid from the 18 at 12:00 until the 18 at 21:00 UTC


181100Z 1812/1821 23013KT 9999 BKN025
TEMPO 1812/1814 23015G25KT
BECMG 1818/1821 15005KT
ATIS : +33 3 21 06 62 84
No reported NOTAMs for that airfield.
1 SIGMET reported for the Paris FIR (LFFF) :
 
Embedded thunderstorms
LFFF SIGMET 1 VALID 181330/181500 LFPW
LFFF PARIS FIR/UIR EMBD TS OBS WI N4800 E00145 - N4800 E00115 - N4915 E00300 - N4845 E00300 - N4800 E00145 TOP FL320 MOV NE 20KT NC=



MET'MAP, your aeronautical weather chart ! - Copyright ORBIFLY December 2007 - Disclaimer

ORBIFLY MET'MAP TEAM :

Programming & Development : Alexandra Zaïnal
Concept & Development : Baudouin d'Aumeries
Co-Development & Prog : Marc-Olivier Méhu
Technical & hardware support : Manuel Goepfert

Contact : metmap@orbifly.com




SOURCES & CREDITS :

   NOAA